createdAt,value
2023-01-31T06:53:03.593Z,63.66
2023-01-31T06:56:11.756Z,98.04
2023-01-31T06:59:17.642Z,51.97
2023-01-31T07:02:24.289Z,50.16
2023-01-31T07:05:30.570Z,53.36
2023-01-31T07:08:40.305Z,54.53
2023-01-31T07:11:46.168Z,93.83
2023-01-31T07:14:53.069Z,89.26
2023-01-31T07:18:02.066Z,74.37
2023-01-31T07:21:10.911Z,83.88
2023-01-31T07:24:19.550Z,83.38
2023-01-31T07:27:26.352Z,89.42
2023-01-31T07:30:33.857Z,94.12
2023-01-31T07:33:41.739Z,63.95
2023-01-31T07:36:47.477Z,71.79
2023-01-31T07:39:56.632Z,79.31
2023-01-31T07:43:03.699Z,80.15
2023-01-31T07:46:14.410Z,84.54
2023-01-31T07:49:20.488Z,94.34
2023-01-31T07:52:27.222Z,118.17
2023-01-31T07:55:37.727Z,106.43
2023-01-31T07:58:48.739Z,82.26
2023-01-31T08:02:06.914Z,77.06
2023-01-31T08:05:14.093Z,73.09
2023-01-31T08:08:19.857Z,46.87
2023-01-31T08:11:29.413Z,61.91
2023-01-31T08:14:35.387Z,54.12
2023-01-31T08:17:41.980Z,49.93
2023-01-31T08:20:47.803Z,53.02
2023-01-31T08:23:54.432Z,45.14
2023-01-31T08:27:03.860Z,49.86
2023-01-31T08:30:14.032Z,48.48
2023-01-31T08:33:19.991Z,43.63
2023-01-31T08:36:31.774Z,45.83
2023-01-31T08:39:37.741Z,51.45
2023-01-31T08:42:47.142Z,50.84
2023-01-31T08:45:52.933Z,53.27
2023-01-31T08:48:59.603Z,50.13
2023-01-31T08:52:05.353Z,42.68
2023-01-31T08:55:13.985Z,48.87
2023-01-31T08:58:22.524Z,48.02
2023-01-31T09:01:29.373Z,55.04
2023-01-31T09:04:35.497Z,103.58
2023-01-31T09:07:42.154Z,200.75
2023-01-31T09:10:54.941Z,135.28
2023-01-31T09:14:04.235Z,463.05
2023-01-31T09:17:11.140Z,115.52
2023-01-31T09:20:19.585Z,75.85
2023-01-31T09:23:26.090Z,56.89
2023-01-31T09:26:33.668Z,65.45
2023-01-31T09:29:42.166Z,59.03
2023-01-31T09:32:49.926Z,54.17
2023-01-31T09:36:04.454Z,59.37
2023-01-31T09:39:11.331Z,76.73
2023-01-31T09:42:30.024Z,40.84
2023-01-31T09:45:45.883Z,44.96
2023-01-31T09:48:58.461Z,39.54
2023-01-31T09:52:07.309Z,39.22
2023-01-31T09:55:21.574Z,37.12
2023-01-31T09:58:45.070Z,32.49
2023-01-31T10:02:07.105Z,34.71
2023-01-31T10:05:32.876Z,37.19
2023-01-31T10:08:53.257Z,39.28
2023-01-31T10:12:10.324Z,42.44
2023-01-31T10:15:33.143Z,44.32
2023-01-31T10:18:52.298Z,42.14
2023-01-31T10:22:08.639Z,37.61
2023-01-31T10:25:30.149Z,43.24
2023-01-31T10:28:49.276Z,49.55
2023-01-31T10:32:05.094Z,67.82
2023-01-31T10:35:26.441Z,55.37
2023-01-31T10:38:44.153Z,70.64
2023-01-31T10:42:14.579Z,43.00
2023-01-31T10:45:31.102Z,43.00
2023-01-31T10:48:38.463Z,56.14
2023-01-31T10:52:15.585Z,37.73
2023-01-31T10:55:48.610Z,37.08
2023-01-31T10:58:56.747Z,49.31
2023-01-31T11:02:03.587Z,55.12
2023-01-31T11:05:23.096Z,60.82
2023-01-31T11:08:39.234Z,271.88
2023-01-31T11:12:00.121Z,307.10
2023-01-31T11:15:19.485Z,1157.79
2023-01-31T11:18:35.470Z,1147.98
2023-01-31T11:21:43.736Z,524.78
2023-01-31T11:24:55.699Z,649.11
2023-01-31T11:28:06.742Z,228.30
2023-01-31T11:31:33.906Z,98.10
2023-01-31T11:34:40.230Z,70.82
2023-01-31T11:37:56.708Z,68.29
2023-01-31T11:41:12.128Z,103.81
2023-01-31T11:44:24.645Z,72.03
2023-01-31T11:47:43.132Z,89.73
2023-01-31T11:50:58.684Z,57.95
2023-01-31T11:54:09.709Z,82.67
2023-01-31T11:57:31.727Z,106.77
2023-01-31T12:00:38.159Z,168.97
2023-01-31T12:04:01.828Z,257.84
2023-01-31T12:07:26.942Z,151.81
2023-01-31T12:10:48.878Z,108.04
2023-01-31T12:14:12.464Z,91.06
2023-01-31T12:17:23.391Z,138.71
2023-01-31T12:20:46.124Z,199.70
2023-01-31T12:24:11.306Z,197.47
2023-01-31T12:27:38.544Z,157.80
2023-01-31T12:31:14.466Z,107.82
2023-01-31T12:35:05.088Z,227.91
2023-01-31T12:38:42.693Z,304.26
2023-01-31T12:42:17.630Z,211.14
2023-01-31T12:45:56.043Z,105.69
2023-01-31T12:49:54.557Z,114.62
2023-01-31T12:53:30.460Z,67.68
2023-01-31T12:57:10.218Z,57.39
2023-01-31T13:00:35.950Z,51.90
2023-01-31T13:04:07.754Z,59.77
2023-01-31T13:07:29.917Z,66.76
2023-01-31T13:10:46.663Z,95.76
2023-01-31T13:14:03.039Z,81.15
2023-01-31T13:17:17.555Z,102.00
2023-01-31T13:20:40.004Z,95.13
2023-01-31T13:23:55.350Z,112.85
2023-01-31T13:27:11.846Z,113.76
2023-01-31T13:30:27.101Z,130.66
2023-01-31T13:33:41.062Z,175.31
2023-01-31T13:36:57.866Z,151.53
2023-01-31T13:40:20.258Z,120.42
2023-01-31T13:43:27.248Z,128.45
2023-01-31T13:46:43.645Z,126.95
2023-01-31T13:50:00.342Z,107.16
2023-01-31T13:53:23.162Z,321.21
2023-01-31T13:56:34.951Z,930.62
2023-01-31T13:59:43.124Z,1729.45
2023-01-31T14:03:05.021Z,669.12
2023-01-31T14:06:12.482Z,233.37
2023-01-31T14:09:31.548Z,130.60
2023-01-31T14:12:40.903Z,164.75
2023-01-31T14:15:54.226Z,178.08
2023-01-31T14:19:01.332Z,513.74
2023-01-31T14:22:19.673Z,618.35
2023-01-31T14:25:46.486Z,411.90
2023-01-31T14:28:53.701Z,120.76
2023-01-31T14:32:03.367Z,245.72
2023-01-31T14:35:40.313Z,337.42
2023-01-31T14:39:46.375Z,302.74
2023-01-31T14:43:40.507Z,259.54
2023-01-31T14:47:30.623Z,291.19
2023-01-31T14:51:09.298Z,273.11
2023-01-31T14:54:48.541Z,228.67
2023-01-31T14:58:01.333Z,200.97
2023-01-31T15:01:12.339Z,162.94
2023-01-31T15:04:28.357Z,227.17
2023-01-31T15:07:37.287Z,246.46
2023-01-31T15:11:02.290Z,253.59
2023-01-31T15:14:34.778Z,150.78
2023-01-31T15:17:44.600Z,407.39
2023-01-31T15:20:58.554Z,133.26
2023-01-31T15:24:05.546Z,167.80
2023-01-31T15:27:22.934Z,223.65
2023-01-31T15:30:36.413Z,146.39
2023-01-31T15:33:55.774Z,198.13
2023-01-31T15:37:12.870Z,175.96
2023-01-31T15:40:25.505Z,154.50
2023-01-31T15:43:31.495Z,158.82
2023-01-31T15:46:38.582Z,169.35
2023-01-31T15:49:47.648Z,245.28
2023-01-31T15:52:54.423Z,179.26
2023-01-31T15:56:05.385Z,325.33
2023-01-31T15:59:18.499Z,199.96
2023-01-31T16:02:33.605Z,174.58
2023-01-31T16:05:43.329Z,188.12
2023-01-31T16:09:04.311Z,209.56
2023-01-31T16:12:16.245Z,196.37
2023-01-31T16:15:28.121Z,201.75
2023-01-31T16:18:36.709Z,233.86
2023-01-31T16:21:47.536Z,251.13
2023-01-31T16:25:01.090Z,195.65
2023-01-31T16:28:15.847Z,220.66
2023-01-31T16:31:37.205Z,192.38
2023-01-31T16:34:43.637Z,201.88
2023-01-31T16:38:08.040Z,209.78
2023-01-31T16:41:16.083Z,206.71
2023-01-31T16:44:27.985Z,215.60
2023-01-31T16:47:52.458Z,248.31
2023-01-31T16:51:02.419Z,267.90
2023-01-31T16:54:22.073Z,228.74
2023-01-31T16:57:39.971Z,219.19
2023-01-31T17:00:46.414Z,257.89
2023-01-31T17:04:18.660Z,223.53
2023-01-31T17:07:30.309Z,214.45
2023-01-31T17:10:39.731Z,221.89
2023-01-31T17:13:45.712Z,211.39
2023-01-31T17:16:54.715Z,227.05
2023-01-31T17:20:02.525Z,236.07
2023-01-31T17:23:09.288Z,278.17
2023-01-31T17:26:24.957Z,298.81
2023-01-31T17:29:31.656Z,283.94
2023-01-31T17:32:37.712Z,231.47
2023-01-31T17:35:49.991Z,226.88
2023-01-31T17:38:59.105Z,230.13
2023-01-31T17:42:09.951Z,227.32
2023-01-31T17:45:19.888Z,251.44
2023-01-31T17:48:27.252Z,276.14
2023-01-31T17:51:40.236Z,238.11
2023-01-31T17:54:47.006Z,248.67
2023-01-31T17:57:55.919Z,216.33
2023-01-31T18:01:02.500Z,216.31
2023-01-31T18:04:08.427Z,224.42
2023-01-31T18:07:18.991Z,241.68
2023-01-31T18:10:24.916Z,242.66
2023-01-31T18:13:36.191Z,245.19
